createdAt,value
2022-09-12T00:01:21.974Z,10.03
2022-09-12T00:06:29.105Z,9.93
2022-09-12T00:11:33.102Z,9.79
2022-09-12T00:16:37.601Z,9.83
2022-09-12T00:21:43.150Z,9.73
2022-09-12T00:26:46.739Z,9.66
2022-09-12T00:31:50.373Z,9.55
2022-09-12T00:36:55.326Z,9.67
2022-09-12T00:41:58.803Z,9.57
2022-09-12T00:47:07.061Z,9.46
2022-09-12T00:52:14.551Z,9.51
2022-09-12T00:57:20.214Z,9.67
2022-09-12T01:02:24.229Z,9.29
2022-09-12T01:07:29.971Z,9.37
2022-09-12T01:12:34.611Z,9.39
2022-09-12T01:17:50.119Z,9.37
2022-09-12T01:23:23.927Z,9.36
2022-09-12T01:28:57.808Z,9.42
2022-09-12T01:34:18.544Z,9.33
2022-09-12T01:39:31.205Z,9.16
2022-09-12T01:44:42.697Z,9.24
2022-09-12T01:49:53.333Z,9.10
2022-09-12T01:55:06.506Z,8.99
2022-09-12T02:00:14.242Z,8.97
2022-09-12T02:05:26.434Z,8.95
2022-09-12T02:10:34.142Z,8.85
2022-09-12T02:15:44.541Z,8.85
2022-09-12T02:20:51.269Z,8.86
2022-09-12T02:25:58.973Z,8.87
2022-09-12T02:31:15.341Z,8.68
2022-09-12T02:36:31.413Z,8.61
2022-09-12T02:41:34.998Z,8.56
2022-09-12T02:46:43.909Z,8.52
2022-09-12T02:51:49.696Z,8.56
2022-09-12T02:56:53.365Z,8.32
2022-09-12T03:02:16.906Z,8.26
2022-09-12T03:07:35.456Z,8.21
2022-09-12T03:12:50.079Z,8.26
2022-09-12T03:18:05.693Z,8.20
2022-09-12T03:23:18.732Z,8.23
2022-09-12T03:28:24.204Z,8.11
2022-09-12T03:33:28.329Z,8.01
2022-09-12T03:38:33.381Z,7.90
2022-09-12T03:43:37.040Z,7.83
2022-09-12T03:48:40.657Z,7.82
2022-09-12T03:53:45.751Z,7.93
2022-09-12T03:58:49.325Z,7.98
2022-09-12T04:03:53.717Z,7.89
2022-09-12T04:08:58.923Z,7.74
2022-09-12T04:14:02.594Z,7.77
2022-09-12T04:19:06.133Z,7.74
2022-09-12T04:24:11.446Z,7.73
2022-09-12T04:29:15.938Z,7.75
2022-09-12T04:34:19.895Z,7.68
2022-09-12T04:39:25.320Z,7.72
2022-09-12T04:44:29.079Z,7.66
2022-09-12T04:49:33.008Z,7.66
2022-09-12T04:54:38.521Z,7.60
2022-09-12T04:59:42.439Z,7.58
2022-09-12T05:04:46.997Z,7.65
2022-09-12T05:09:52.647Z,7.81
2022-09-12T05:14:56.450Z,7.85
2022-09-12T05:20:00.807Z,7.75
2022-09-12T05:25:07.054Z,7.80
2022-09-12T05:30:12.274Z,7.88
2022-09-12T05:35:16.253Z,7.97
2022-09-12T05:40:21.747Z,8.04
2022-09-12T05:45:27.150Z,8.27
2022-09-12T05:50:31.040Z,8.25
2022-09-12T05:55:36.831Z,8.31
2022-09-12T06:00:40.690Z,8.49
2022-09-12T06:05:47.648Z,8.69
2022-09-12T06:11:02.242Z,8.75
2022-09-12T06:16:08.230Z,8.88
2022-09-12T06:21:13.489Z,9.26
2022-09-12T06:26:21.666Z,9.87
2022-09-12T06:31:28.019Z,10.85
2022-09-12T06:36:33.977Z,11.66
2022-09-12T06:41:43.094Z,12.03
2022-09-12T06:46:47.462Z,12.13
2022-09-12T06:51:50.966Z,12.43
2022-09-12T06:56:55.789Z,12.78
2022-09-12T07:01:59.394Z,13.37
2022-09-12T07:07:03.117Z,13.86
2022-09-12T07:12:09.005Z,14.13
2022-09-12T07:17:12.434Z,14.17
2022-09-12T07:22:16.049Z,14.78
2022-09-12T07:27:20.999Z,14.91
2022-09-12T07:32:24.903Z,15.11
2022-09-12T07:37:31.686Z,15.58
2022-09-12T07:42:36.718Z,15.72
2022-09-12T07:47:41.080Z,15.97
2022-09-12T07:52:44.636Z,16.53
2022-09-12T07:57:52.161Z,16.88
2022-09-12T08:02:56.627Z,17.06
2022-09-12T08:08:00.189Z,17.38
2022-09-12T08:13:05.071Z,17.57
2022-09-12T08:18:08.549Z,17.48
2022-09-12T08:23:12.132Z,17.82
2022-09-12T08:28:17.096Z,18.42
2022-09-12T08:33:20.676Z,18.63
2022-09-12T08:38:24.205Z,18.58
2022-09-12T08:43:44.392Z,19.02
2022-09-12T08:48:48.133Z,19.15
2022-09-12T08:53:56.433Z,18.46
2022-09-12T08:59:01.304Z,19.38
2022-09-12T09:04:32.022Z,19.71
2022-09-12T09:09:49.001Z,19.64
2022-09-12T09:15:21.487Z,20.03
2022-09-12T09:20:30.862Z,20.18
2022-09-12T09:25:44.836Z,19.83
2022-09-12T09:30:50.622Z,20.17
2022-09-12T09:36:02.905Z,20.31
2022-09-12T09:41:21.552Z,20.68
2022-09-12T09:46:28.234Z,20.89
2022-09-12T09:51:36.488Z,20.86
2022-09-12T09:56:42.448Z,21.08
2022-09-12T10:01:49.277Z,21.63
2022-09-12T10:06:54.642Z,21.93
2022-09-12T10:11:58.846Z,21.47
2022-09-12T10:17:22.396Z,21.29
2022-09-12T10:22:28.709Z,21.70
2022-09-12T10:27:34.040Z,21.67
2022-09-12T10:32:41.349Z,21.30
2022-09-12T10:37:54.547Z,21.70
2022-09-12T10:42:59.421Z,22.02
2022-09-12T10:48:25.323Z,21.38
2022-09-12T10:53:34.671Z,22.11
2022-09-12T10:59:00.757Z,21.77
2022-09-12T11:04:23.355Z,22.01
2022-09-12T11:09:32.402Z,21.86
2022-09-12T11:14:49.808Z,22.24
2022-09-12T11:20:18.472Z,22.06
2022-09-12T11:25:33.032Z,22.69
2022-09-12T11:30:43.859Z,22.16
2022-09-12T11:35:55.213Z,22.43
2022-09-12T11:41:02.432Z,22.50
2022-09-12T11:46:15.730Z,22.06
2022-09-12T11:51:25.501Z,22.33
2022-09-12T11:56:29.286Z,22.20
2022-09-12T12:01:43.888Z,22.20
2022-09-12T12:06:58.988Z,21.66
2022-09-12T12:12:08.447Z,22.34
2022-09-12T12:17:17.553Z,22.14
2022-09-12T12:22:25.472Z,22.65
2022-09-12T12:27:48.144Z,22.70
2022-09-12T12:32:51.882Z,23.44
2022-09-12T12:37:58.884Z,23.22
2022-09-12T12:43:31.662Z,23.33
2022-09-12T12:48:46.076Z,23.20
2022-09-12T12:53:51.901Z,22.75
2022-09-12T12:59:02.574Z,22.25
2022-09-12T13:04:16.067Z,22.69
2022-09-12T13:09:28.009Z,23.22
2022-09-12T13:14:52.711Z,22.47
2022-09-12T13:20:26.846Z,22.86
2022-09-12T13:25:35.309Z,22.78
2022-09-12T13:30:43.109Z,22.10
2022-09-12T13:36:14.705Z,22.46
2022-09-12T13:41:34.360Z,21.81
2022-09-12T13:46:38.739Z,22.11
2022-09-12T13:51:42.900Z,22.45
2022-09-12T14:01:55.492Z,22.27
2022-09-12T14:07:01.183Z,22.32
2022-09-12T14:12:18.051Z,21.97
2022-09-12T14:17:29.899Z,21.98
2022-09-12T14:22:34.442Z,21.98
2022-09-12T14:27:47.976Z,22.06
2022-09-12T14:33:19.950Z,21.96
2022-09-12T14:38:32.651Z,21.97
2022-09-12T14:43:45.546Z,22.53
2022-09-12T14:48:52.628Z,22.22
2022-09-12T14:53:56.338Z,22.20
2022-09-12T14:59:32.598Z,22.53
2022-09-12T15:04:41.055Z,22.16
2022-09-12T15:09:47.390Z,22.24
2022-09-12T15:14:52.900Z,22.04
2022-09-12T15:19:57.128Z,21.84
2022-09-12T15:25:01.875Z,21.88
2022-09-12T15:30:09.247Z,21.74
2022-09-12T15:35:20.677Z,21.37
2022-09-12T15:40:27.073Z,20.97
2022-09-12T15:45:35.086Z,20.74
2022-09-12T15:50:39.048Z,20.17
2022-09-12T15:55:44.014Z,20.16
2022-09-12T16:00:49.288Z,19.78
2022-09-12T16:05:57.920Z,19.51
2022-09-12T16:11:05.945Z,19.44
2022-09-12T16:16:12.293Z,19.31
2022-09-12T16:21:20.145Z,18.99
2022-09-12T16:26:23.820Z,19.00
2022-09-12T16:31:29.221Z,18.53
2022-09-12T16:36:32.932Z,18.01
2022-09-12T16:41:36.671Z,17.96
2022-09-12T16:46:42.098Z,17.61
2022-09-12T16:51:47.649Z,17.55
2022-09-12T16:56:52.624Z,17.39
2022-09-12T17:01:57.977Z,17.45
2022-09-12T17:07:02.966Z,17.06
2022-09-12T17:12:07.140Z,17.22
2022-09-12T17:17:13.514Z,17.11
2022-09-12T17:22:17.678Z,17.09
2022-09-12T17:27:21.621Z,16.60
2022-09-12T17:32:26.829Z,16.17
2022-09-12T17:37:36.896Z,16.54
2022-09-12T17:42:41.142Z,16.14
2022-09-12T17:47:47.293Z,16.10
2022-09-12T17:52:53.888Z,16.02
2022-09-12T17:57:59.978Z,15.84
2022-09-12T18:03:05.913Z,15.61
2022-09-12T18:08:13.738Z,15.40
2022-09-12T18:13:19.562Z,15.16
2022-09-12T18:18:24.518Z,15.12
2022-09-12T18:23:28.947Z,14.97
2022-09-12T18:28:33.770Z,14.94
2022-09-12T18:33:39.133Z,14.72
2022-09-12T18:38:44.631Z,14.86
2022-09-12T18:43:55.743Z,14.64
2022-09-12T18:49:05.143Z,14.45
2022-09-12T18:54:13.950Z,14.23
2022-09-12T18:59:21.028Z,14.03
2022-09-12T19:04:26.753Z,14.06
2022-09-12T19:09:30.994Z,13.90
2022-09-12T19:14:38.881Z,13.75
2022-09-12T19:20:00.023Z,13.54
2022-09-12T19:25:08.544Z,13.62
2022-09-12T19:30:13.874Z,13.40
2022-09-12T19:35:19.434Z,13.12
2022-09-12T19:40:24.767Z,13.23
2022-09-12T19:45:34.181Z,13.16
2022-09-12T19:50:43.240Z,13.17
2022-09-12T19:55:48.533Z,13.06
2022-09-12T20:00:52.188Z,12.92
2022-09-12T20:06:03.503Z,12.93
2022-09-12T20:11:08.597Z,12.88
2022-09-12T20:16:21.037Z,12.71
2022-09-12T20:21:32.095Z,12.71
2022-09-12T20:26:36.568Z,12.52
2022-09-12T20:31:42.293Z,12.54
2022-09-12T20:36:47.911Z,12.32
2022-09-12T20:41:51.894Z,12.28
2022-09-12T20:46:55.569Z,12.25
2022-09-12T20:52:00.643Z,12.03
2022-09-12T20:57:04.522Z,12.04
2022-09-12T21:02:08.344Z,12.09
2022-09-12T21:07:16.051Z,11.88
2022-09-12T21:12:20.334Z,11.79
2022-09-12T21:17:24.677Z,11.91
2022-09-12T21:22:31.008Z,11.90
2022-09-12T21:27:34.731Z,11.62
2022-09-12T21:32:39.255Z,11.65
2022-09-12T21:37:45.387Z,11.54
2022-09-12T21:42:50.948Z,11.54
2022-09-12T21:47:54.889Z,11.37
2022-09-12T21:52:59.976Z,11.48
2022-09-12T21:58:03.683Z,11.35
2022-09-12T22:03:07.535Z,11.33
2022-09-12T22:08:12.637Z,11.38
2022-09-12T22:13:17.761Z,11.16
2022-09-12T22:18:21.929Z,10.96
2022-09-12T22:23:44.888Z,10.91
2022-09-12T22:28:49.325Z,11.01
2022-09-12T22:33:53.398Z,10.98
2022-09-12T22:38:58.849Z,10.87
2022-09-12T22:44:02.787Z,10.90
2022-09-12T22:49:07.506Z,10.91
2022-09-12T22:54:12.899Z,10.93
2022-09-12T22:59:16.575Z,10.85
2022-09-12T23:04:20.006Z,10.71
2022-09-12T23:09:25.254Z,10.54
2022-09-12T23:14:29.192Z,10.68
2022-09-12T23:19:32.874Z,10.49
2022-09-12T23:24:38.773Z,10.40
2022-09-12T23:29:42.439Z,10.46
2022-09-12T23:34:46.812Z,10.31
2022-09-12T23:39:52.485Z,10.56
2022-09-12T23:44:56.259Z,10.50
2022-09-12T23:49:59.771Z,10.37
2022-09-12T23:55:05.196Z,10.44
